Hastings, NE (68901)

11:57 AM CDT on August 27, 2014 (GMT -0500)
West 12th Street | Change Station
CLOSE
Current Station
Personal Weather Station
Location: Hastings, NE
Elevation: 1934 ft
Nearby Weather Stations
Active Advisory: Flash Flood Watch

Elev 1934 ft 40.60 °N, 98.40 °W | Updated 12 seconds ago

Overcast
Overcast
69.9 °F
Feels Like 69.9 °F
N
0.0
Wind Variable Wind from ESE
Gusts 2.0 mph

Today
High -- | Low -- °F
--% Chance of Precip.
Yesterday
High -- | Low -- °F
Precip. -- in
6:55 AM 8:13 PM
Waxing Crescent, 4% visible
Pressure 30.12 in
Visibility 10.0 miles
Clouds Few 1300 ft
Mostly Cloudy 2000 ft
Overcast 9500 ft
Dew Point 67 °F
Humidity 91%
Rainfall 0.09 in
Snow Depth Not available.
UV 2 out of 12
Pollen 1.60 out of 12
Air Quality Not available.
Flu Activity Not available.
METAR KHSI 271653Z AUTO 07009KT 10SM FEW013 BKN020 OVC095 22/18 A3016 RMK AO2 RAB20E31 SLP200 P0000 T02220183

More Conditions Fewer Conditions

Pressure 30.12 in
Visibility 10.0 miles
Clouds Few 1300 ft
Mostly Cloudy 2000 ft
Overcast 9500 ft
Dew Point 67 °F
Humidity 91%
Rainfall 0.09 in
Snow Depth Not available.
UV 2 out of 12
Pollen 1.60 out of 12
Air Quality Not available.
Flu Activity Not available.
METAR KHSI 271653Z AUTO 07009KT 10SM FEW013 BKN020 OVC095 22/18 A3016 RMK AO2 RAB20E31 SLP200 P0000 T02220183

More Conditions Fewer Conditions

10-Day Weather Forecast

Almanac

Astronomy

Aug. 27, 2014 Rise Set
Actual Time 6:55 AM CDT 8:13 PM CDT
Civil Twilight 6:27 AM CDT 8:41 PM CDT
Nautical Twilight 5:53 AM CDT 9:15 PM CDT
Astronomical Twilight 5:17 AM CDT 9:51 PM CDT
Moon 8:54 AM CDT 9:05 PM CDT
Length of Visible Light 14h 14m
Length of Day
13h 17m
Tomorrow will be 2m 32s shorter.
Waxing Crescent, 4% of the Moon is Illuminated
Today
Waxing Crescent
Sep 2
First Quarter
Sep 8
Full
Sep 15
Last Quarter
Sep 24
New

Today's Extremes

State Highs State Lows

Community

WunderPhotos

Upload Photos

1,747,727 photos uploaded!

Nearby

Snow Depth

Station Depth Elevation
No new snow has been reported.

Earthquake Activity

City Distance Mag. Time & Date
No recent earthquake activity has been reported nearby.
Minimum magnitude displayed is 2.5.

Coastal Water Temperatures

Place Temperature
No Stations Reporting

Nearby Weather Stations